Time;durP1;ratioP1;P1;durP2;ratioP2;P2;SDS_P1;SDS_P2;PMS_P1;PMS_P2;Temp;Humidity;BMP_temperature;BMP_pressure;BME280_temperature;BME280_humidity;BME280_pressure;Samples;Min_cycle;Max_cycle;Signal;HPM_P1;HPM_P2
2021/08/17 00:01:12;;;;;;;6.87;3.90;;;;;;;18.23;55.21;97988.69;8376298;28;20283;-83
2021/08/17 00:05:15;;;;;;;7.47;3.90;;;;;;;18.26;54.94;97983.22;8354721;28;20273;-83
2021/08/17 00:09:18;;;;;;;10.33;3.87;;;;;;;18.00;54.95;97998.25;8386174;28;20211;-81
2021/08/17 00:13:22;;;;;;;7.93;3.90;;;;;;;18.24;55.20;97979.00;8385864;28;20200;-83
2021/08/17 00:17:25;;;;;;;8.03;3.97;;;;;;;18.32;54.79;97984.53;8385615;28;20203;-83
2021/08/17 00:21:28;;;;;;;7.10;3.90;;;;;;;17.84;55.89;97977.59;8385869;28;20200;-83
2021/08/17 00:25:31;;;;;;;7.33;3.50;;;;;;;17.95;54.77;97993.38;8385651;28;20501;-83
2021/08/17 00:29:35;;;;;;;10.33;4.17;;;;;;;17.77;55.30;98000.75;8391144;28;20204;-82
2021/08/17 00:33:37;;;;;;;8.33;3.77;;;;;;;17.75;55.73;98000.03;8401516;28;20211;-83
2021/08/17 00:37:40;;;;;;;6.97;3.60;;;;;;;17.77;55.65;98002.53;8385092;28;20234;-83
2021/08/17 00:41:45;;;;;;;7.93;3.60;;;;;;;18.02;55.32;97998.97;8384984;28;20573;-83
2021/08/17 00:45:49;;;;;;;6.37;3.57;;;;;;;17.96;54.27;97989.78;8384848;28;20224;-84
2021/08/17 00:49:52;;;;;;;6.80;3.93;;;;;;;17.92;54.29;97988.34;8384743;28;20210;-83
2021/08/17 00:53:55;;;;;;;5.97;3.80;;;;;;;17.70;55.38;97990.84;8384688;28;20199;-84
2021/08/17 00:57:59;;;;;;;6.73;4.53;;;;;;;17.61;55.71;98001.97;8384352;28;20399;-83
2021/08/17 01:02:03;;;;;;;9.20;3.83;;;;;;;17.66;55.68;97998.06;8384081;28;20218;-83
2021/08/17 01:06:06;;;;;;;7.57;4.77;;;;;;;17.53;55.73;98003.34;8384026;28;20255;-84
2021/08/17 01:10:11;;;;;;;6.43;4.73;;;;;;;17.48;55.94;98004.66;8384051;28;20382;-83
2021/08/17 01:14:14;;;;;;;7.30;4.40;;;;;;;17.55;55.87;97995.41;8383998;28;20214;-84
2021/08/17 01:18:18;;;;;;;9.17;4.77;;;;;;;17.49;55.68;97994.06;8383604;28;20222;-84
2021/08/17 01:22:21;;;;;;;8.43;4.87;;;;;;;17.26;56.13;97994.88;8383663;28;20207;-84
2021/08/17 01:26:25;;;;;;;7.77;4.80;;;;;;;17.24;55.50;98002.84;8383566;28;20418;-85
2021/08/17 01:30:27;;;;;;;5.07;4.20;;;;;;;17.56;55.26;98016.25;8383604;28;20231;-83
2021/08/17 01:34:30;;;;;;;8.43;4.60;;;;;;;17.08;55.92;98028.44;8383079;28;20200;-82
2021/08/17 01:38:33;;;;;;;11.53;4.67;;;;;;;17.41;55.33;98033.06;8383344;28;20235;-82
2021/08/17 01:42:39;;;;;;;10.07;4.43;;;;;;;17.42;54.94;98037.34;8382815;28;20200;-82
2021/08/17 01:46:43;;;;;;;9.23;4.57;;;;;;;17.42;55.06;98042.59;8382730;28;20227;-82
2021/08/17 01:50:46;;;;;;;10.87;4.37;;;;;;;17.39;55.15;98059.34;8382781;28;20200;-83
2021/08/17 01:54:48;;;;;;;10.47;4.40;;;;;;;17.51;54.85;98065.47;8382457;28;20514;-80
2021/08/17 01:58:53;;;;;;;9.80;4.97;;;;;;;17.30;55.11;98059.16;8382306;28;20218;-84
2021/08/17 02:02:56;;;;;;;11.60;5.40;;;;;;;17.27;55.29;98056.72;8382024;28;20200;-84
2021/08/17 02:06:59;;;;;;;7.50;4.60;;;;;;;17.35;54.91;98054.44;8382145;28;20233;-85
2021/08/17 02:11:02;;;;;;;9.23;4.90;;;;;;;17.27;55.16;98054.13;8381900;28;20200;-83
2021/08/17 02:15:07;;;;;;;8.17;4.70;;;;;;;17.32;54.70;98050.22;8381704;28;20210;-83
2021/08/17 02:19:10;;;;;;;10.27;4.77;;;;;;;17.37;54.36;98050.75;8381636;28;20200;-84
2021/08/17 02:23:13;;;;;;;7.90;4.40;;;;;;;17.20;54.87;98056.34;8381971;28;20210;-84
2021/08/17 02:27:16;;;;;;;7.53;4.60;;;;;;;17.38;54.23;98052.44;8381908;28;20301;-83
2021/08/17 02:31:20;;;;;;;9.17;5.03;;;;;;;17.19;54.56;98059.88;8381766;28;20210;-84
2021/08/17 02:35:23;;;;;;;9.60;4.90;;;;;;;17.05;54.74;98057.41;8381774;28;20214;-82
2021/08/17 02:39:26;;;;;;;7.83;4.73;;;;;;;17.21;54.63;98058.03;8382141;28;20228;-82
2021/08/17 02:43:29;;;;;;;9.23;4.87;;;;;;;16.98;55.34;98065.69;8381662;28;20203;-84
2021/08/17 02:47:34;;;;;;;9.17;5.10;;;;;;;17.17;55.06;98056.53;8382068;28;20237;-84
2021/08/17 02:51:36;;;;;;;7.73;4.70;;;;;;;16.95;55.11;98065.91;8381500;28;20262;-82
2021/08/17 02:55:39;;;;;;;9.87;5.03;;;;;;;17.02;55.26;98055.84;8381561;28;20210;-82
2021/08/17 02:59:42;;;;;;;8.27;5.03;;;;;;;17.02;55.16;98063.72;8381477;28;20203;-83
2021/08/17 03:03:46;;;;;;;9.93;5.10;;;;;;;16.99;54.98;98053.44;8381223;28;20285;-83
2021/08/17 03:07:51;;;;;;;10.60;5.20;;;;;;;16.95;54.89;98054.59;8381541;28;20290;-83
2021/08/17 03:11:55;;;;;;;7.37;4.67;;;;;;;16.71;55.37;98065.75;8381612;28;20228;-84
2021/08/17 03:15:57;;;;;;;11.10;5.10;;;;;;;16.92;55.02;98073.94;8381518;28;20216;-83
2021/08/17 03:20:02;;;;;;;9.87;4.63;;;;;;;16.95;54.91;98078.97;8381168;28;20214;-85
2021/08/17 03:24:05;;;;;;;11.00;4.90;;;;;;;16.83;55.00;98086.81;8383600;28;20266;-82
2021/08/17 03:28:08;;;;;;;7.93;4.60;;;;;;;16.78;55.27;98084.50;8405804;28;20227;-83
2021/08/17 03:32:11;;;;;;;10.53;4.97;;;;;;;16.93;54.69;98082.66;8387083;28;20211;-83
2021/08/17 03:36:15;;;;;;;7.57;4.77;;;;;;;16.63;55.38;98088.13;8386882;28;20218;-83
2021/08/17 03:40:20;;;;;;;9.17;4.83;;;;;;;16.53;55.48;98093.16;8386935;28;20227;-84
2021/08/17 03:44:23;;;;;;;9.77;5.23;;;;;;;16.73;55.00;98084.78;8386775;28;20203;-83
2021/08/17 03:48:26;;;;;;;7.23;4.40;;;;;;;16.67;55.06;98082.59;8386710;28;20228;-84
2021/08/17 03:52:30;;;;;;;11.03;4.83;;;;;;;16.85;54.27;98096.25;8386640;28;20208;-84
2021/08/17 03:56:33;;;;;;;12.20;4.57;;;;;;;16.39;56.05;98088.81;8386524;28;20333;-83
2021/08/17 04:00:36;;;;;;;9.97;4.57;;;;;;;16.41;55.50;98098.25;8385266;28;20207;-83
2021/08/17 04:04:39;;;;;;;9.70;4.77;;;;;;;16.60;54.97;98102.25;8386092;28;20519;-84
2021/08/17 04:08:43;;;;;;;11.83;4.33;;;;;;;16.51;55.55;98101.09;8386226;28;20219;-85
2021/08/17 04:12:46;;;;;;;15.90;4.90;;;;;;;16.35;55.25;98105.66;8385892;28;20199;-84
2021/08/17 04:16:49;;;;;;;9.17;4.73;;;;;;;16.20;55.58;98115.31;8385863;28;20204;-88
2021/08/17 04:20:52;;;;;;;11.03;4.30;;;;;;;16.48;55.34;98113.53;8385666;28;20206;-86
2021/08/17 04:24:56;;;;;;;10.53;4.30;;;;;;;16.42;55.61;98118.22;8385765;28;20219;-83
2021/08/17 04:28:59;;;;;;;10.13;4.27;;;;;;;16.33;55.79;98124.03;8385325;28;20206;-83
2021/08/17 04:33:01;;;;;;;11.07;4.27;;;;;;;16.32;55.58;98119.75;8385375;28;20218;-86
2021/08/17 04:37:04;;;;;;;9.33;4.03;;;;;;;16.55;55.08;98120.84;8384234;28;20236;-85
2021/08/17 04:41:08;;;;;;;9.23;4.50;;;;;;;16.30;56.02;98131.25;8385067;28;20200;-84
2021/08/17 04:45:12;;;;;;;8.90;3.90;;;;;;;16.54;55.23;98142.69;8384663;28;20204;-83
2021/08/17 04:49:15;;;;;;;11.80;4.37;;;;;;;16.49;55.16;98138.75;8384747;28;20200;-82
2021/08/17 04:53:17;;;;;;;10.63;4.10;;;;;;;16.22;54.85;98147.41;8384751;28;20529;-86
2021/08/17 04:57:21;;;;;;;11.50;4.50;;;;;;;16.40;55.99;98156.69;8384451;28;20200;-84
2021/08/17 05:01:24;;;;;;;10.30;4.37;;;;;;;16.45;55.83;98161.63;8384335;28;20199;-83
2021/08/17 05:05:28;;;;;;;9.63;3.87;;;;;;;16.44;55.16;98165.16;8383941;28;20266;-85
2021/08/17 05:09:31;;;;;;;8.27;3.80;;;;;;;16.63;54.87;98161.34;8351152;28;20211;-85
2021/08/17 05:13:35;;;;;;;8.17;4.07;;;;;;;16.56;55.00;98169.59;8351006;28;20205;-86
2021/08/17 05:17:38;;;;;;;12.33;4.00;;;;;;;16.63;55.04;98172.63;8350900;28;20211;-85
2021/08/17 05:21:41;;;;;;;9.53;3.63;;;;;;;16.63;55.08;98184.88;8350930;28;20200;-84
2021/08/17 05:25:44;;;;;;;8.70;3.70;;;;;;;16.49;55.22;98186.63;8350634;28;20224;-85
2021/08/17 05:29:52;;;;;;;10.00;4.10;;;;;;;16.58;54.71;98193.00;8350700;28;20201;-85
2021/08/17 05:33:54;;;;;;;11.00;3.77;;;;;;;16.69;54.63;98197.53;8350837;28;20200;-85
2021/08/17 05:37:57;;;;;;;10.07;4.13;;;;;;;16.66;54.57;98202.97;8350412;28;20243;-85
2021/08/17 05:42:00;;;;;;;8.70;4.03;;;;;;;16.78;54.89;98210.84;8350288;28;20511;-85
2021/08/17 05:46:04;;;;;;;7.33;3.93;;;;;;;16.94;54.65;98210.69;8350234;28;20228;-84
2021/08/17 05:50:08;;;;;;;11.37;4.27;;;;;;;16.98;54.27;98221.78;8349823;28;20266;-86
2021/08/17 05:54:11;;;;;;;7.60;4.17;;;;;;;16.98;53.89;98221.78;8349914;28;20200;-84
2021/08/17 05:58:14;;;;;;;9.60;4.33;;;;;;;17.04;54.04;98210.09;8365204;28;20199;-82
2021/08/17 06:02:18;;;;;;;10.17;4.47;;;;;;;17.19;53.85;98223.00;8382737;28;20199;-84
2021/08/17 06:06:21;;;;;;;10.67;4.00;;;;;;;17.35;54.31;98220.16;8382664;28;20228;-84
2021/08/17 06:10:24;;;;;;;10.23;4.50;;;;;;;17.25;53.82;98228.75;8382994;28;20206;-84
2021/08/17 06:14:27;;;;;;;11.87;5.13;;;;;;;17.08;54.19;98237.75;8382930;28;20208;-84
2021/08/17 06:18:31;;;;;;;10.60;4.40;;;;;;;17.22;54.47;98231.59;8389411;28;20207;-84
2021/08/17 06:22:34;;;;;;;8.40;4.20;;;;;;;17.26;54.67;98238.28;8397682;28;20199;-84
2021/08/17 06:26:37;;;;;;;8.30;4.80;;;;;;;17.18;54.37;98231.78;8382401;28;20369;-83
2021/08/17 06:30:40;;;;;;;10.73;4.47;;;;;;;17.41;53.39;98236.41;8382280;28;20200;-85
2021/08/17 06:34:44;;;;;;;8.30;4.27;;;;;;;17.51;53.38;98237.44;8382395;28;20200;-84
2021/08/17 06:38:47;;;;;;;8.17;4.50;;;;;;;17.44;54.00;98234.44;8381850;28;20242;-83
2021/08/17 06:42:50;;;;;;;9.00;4.57;;;;;;;17.61;52.92;98235.88;8382277;28;20206;-81
2021/08/17 06:46:53;;;;;;;10.20;4.50;;;;;;;17.68;52.81;98231.06;8382115;28;20553;-81
2021/08/17 06:50:57;;;;;;;9.57;4.50;;;;;;;17.54;53.52;98230.22;8382430;28;20200;-83
2021/08/17 06:55:01;;;;;;;9.90;4.60;;;;;;;17.77;53.16;98230.41;8382064;28;20215;-83
2021/08/17 06:59:04;;;;;;;9.97;4.70;;;;;;;17.76;53.49;98224.34;8381669;28;20491;-83
2021/08/17 07:03:07;;;;;;;11.77;4.90;;;;;;;17.74;52.77;98220.16;8386904;28;20200;-84
2021/08/17 07:07:12;;;;;;;8.40;4.80;;;;;;;17.74;52.39;98223.63;8387708;28;20255;-85
2021/08/17 07:11:15;;;;;;;8.47;5.33;;;;;;;17.91;51.62;98230.31;8387987;28;20199;-86
2021/08/17 07:15:18;;;;;;;11.93;5.00;;;;;;;17.66;52.91;98246.03;8387979;28;20206;-87
2021/08/17 07:19:21;;;;;;;12.47;5.20;;;;;;;18.21;54.24;98244.81;8388295;28;20266;-87
2021/08/17 07:23:25;;;;;;;8.77;4.70;;;;;;;18.38;54.42;98250.66;8388388;28;20398;-84
2021/08/17 07:27:28;;;;;;;7.60;4.60;;;;;;;18.98;52.62;98248.94;8375826;28;20539;-84
2021/08/17 07:31:34;;;;;;;7.63;4.80;;;;;;;19.49;49.81;98251.19;8370219;28;20192;-86
2021/08/17 07:35:37;;;;;;;18.10;5.43;;;;;;;19.83;51.88;98246.00;8370226;28;20199;-85
2021/08/17 07:39:41;;;;;;;17.67;6.50;;;;;;;19.98;48.35;98247.44;8371764;28;20224;-84
2021/08/17 07:43:44;;;;;;;10.17;5.20;;;;;;;20.31;47.22;98261.50;8368842;28;20193;-84
2021/08/17 07:47:47;;;;;;;10.03;4.90;;;;;;;19.83;47.43;98259.16;8369837;28;20308;-85
2021/08/17 07:51:50;;;;;;;11.47;4.77;;;;;;;20.45;46.42;98261.25;8371407;28;20219;-84
2021/08/17 07:55:54;;;;;;;11.07;4.80;;;;;;;21.27;52.91;98267.78;8376729;28;20488;-83
2021/08/17 07:59:57;;;;;;;8.43;4.77;;;;;;;21.60;47.00;98271.19;8372770;28;20519;-84
2021/08/17 08:04:04;;;;;;;11.03;4.73;;;;;;;21.56;48.31;98267.16;8369579;28;20218;-83
2021/08/17 08:08:06;;;;;;;14.93;5.40;;;;;;;21.15;47.57;98271.41;8369629;28;20228;-83
2021/08/17 08:12:13;;;;;;;12.03;5.30;;;;;;;22.29;45.63;98257.34;8368955;28;20196;-83
2021/08/17 08:16:16;;;;;;;11.97;5.00;;;;;;;22.31;41.64;98268.59;8369893;28;20199;-83
2021/08/17 08:20:20;;;;;;;13.00;5.83;;;;;;;22.54;42.98;98277.13;8369468;28;20191;-83
2021/08/17 08:24:22;;;;;;;12.07;5.10;;;;;;;22.64;43.16;98279.78;8369419;28;20195;-83
2021/08/17 08:28:27;;;;;;;9.30;4.93;;;;;;;22.50;42.95;98283.63;8368387;28;20222;-83
2021/08/17 08:32:30;;;;;;;13.10;5.27;;;;;;;22.38;43.55;98288.19;8363262;28;20506;-87
2021/08/17 08:36:32;;;;;;;12.33;5.10;;;;;;;21.96;44.17;98283.03;8368636;28;20207;-84
2021/08/17 08:40:35;;;;;;;8.17;4.97;;;;;;;21.48;43.01;98294.97;8369521;28;20301;-83
2021/08/17 08:44:40;;;;;;;7.53;4.93;;;;;;;21.23;46.83;98295.34;8385910;28;20205;-82
2021/08/17 08:48:49;;;;;;;11.50;5.10;;;;;;;20.97;46.30;98294.84;8363509;28;20229;-84
2021/08/17 08:52:52;;;;;;;14.23;5.47;;;;;;;20.65;47.05;98301.75;8362681;28;20412;-83
2021/08/17 08:56:56;;;;;;;8.93;5.60;;;;;;;20.83;43.25;98301.25;8385478;28;20213;-87
2021/08/17 09:01:00;;;;;;;12.27;5.00;;;;;;;21.19;44.54;98297.38;8385817;28;20231;-86
2021/08/17 09:05:04;;;;;;;10.13;5.40;;;;;;;21.94;42.02;98287.59;8398296;28;20222;-84
2021/08/17 09:09:11;;;;;;;9.27;5.70;;;;;;;22.34;41.74;98278.88;8408977;28;20279;-85
2021/08/17 09:13:14;;;;;;;10.03;6.23;;;;;;;22.63;40.40;98280.75;8394296;28;20262;-87
2021/08/17 09:17:19;;;;;;;9.70;6.47;;;;;;;22.44;39.50;98278.91;8385221;28;20214;-88
2021/08/17 09:21:38;;;;;;;9.30;6.23;;;;;;;21.55;41.56;98270.75;8385125;28;20202;-83
2021/08/17 09:25:41;;;;;;;13.07;6.17;;;;;;;21.45;41.09;98276.78;8383722;28;20203;-84
2021/08/17 09:29:46;;;;;;;8.63;6.03;;;;;;;21.63;40.59;98273.59;8384295;28;20224;-84
2021/08/17 09:33:51;;;;;;;11.07;6.27;;;;;;;22.93;38.29;98265.78;8384665;28;20206;-84
2021/08/17 09:38:08;;;;;;;9.93;6.37;;;;;;;24.16;35.85;98260.53;8384280;28;20262;-84
2021/08/17 09:42:14;;;;;;;10.77;6.00;;;;;;;24.39;35.53;98260.94;8383864;28;20207;-85
2021/08/17 09:46:26;;;;;;;10.40;6.23;;;;;;;24.20;35.00;98256.59;8383978;28;20495;-84
2021/08/17 09:50:33;;;;;;;7.77;5.67;;;;;;;23.37;34.69;98255.63;8383650;28;20310;-85
2021/08/17 09:54:39;;;;;;;10.87;6.37;;;;;;;22.90;36.56;98258.94;8383692;28;20199;-85
2021/08/17 09:58:41;;;;;;;10.07;6.10;;;;;;;22.97;37.40;98267.16;8383677;28;20207;-84
2021/08/17 10:02:46;;;;;;;8.00;6.20;;;;;;;23.53;36.65;98263.81;8383702;28;20372;-84
2021/08/17 10:06:51;;;;;;;13.43;6.47;;;;;;;23.03;36.35;98250.78;8383627;28;20257;-84
2021/08/17 10:10:55;;;;;;;8.27;5.93;;;;;;;23.00;35.67;98243.94;8383876;28;20226;-84
2021/08/17 10:14:58;;;;;;;9.40;6.07;;;;;;;23.63;35.10;98234.69;8382902;28;20196;-84
2021/08/17 10:19:01;;;;;;;8.90;5.90;;;;;;;23.44;34.40;98235.56;8383119;28;20207;-86
2021/08/17 10:23:05;;;;;;;8.13;5.23;;;;;;;24.31;33.00;98237.06;8383372;28;20204;-85
2021/08/17 10:27:26;;;;;;;9.67;5.97;;;;;;;23.64;33.76;98227.59;8381592;28;20397;-85
2021/08/17 10:31:31;;;;;;;7.77;5.53;;;;;;;24.39;33.29;98229.19;8375205;28;20483;-85
2021/08/17 10:35:53;;;;;;;7.67;5.23;;;;;;;23.52;34.50;98227.75;8382337;28;20207;-84
2021/08/17 10:39:58;;;;;;;9.40;5.97;;;;;;;22.73;36.59;98212.97;8382619;28;20572;-84
2021/08/17 10:44:16;;;;;;;7.93;5.50;;;;;;;22.83;36.12;98216.44;8382978;28;20201;-84
2021/08/17 10:48:48;;;;;;;6.70;5.17;;;;;;;22.70;35.93;98205.31;8382466;28;20231;-86
2021/08/17 10:52:51;;;;;;;8.47;5.70;;;;;;;22.80;36.26;98213.25;8381774;28;20204;-86
2021/08/17 10:56:56;;;;;;;8.50;5.47;;;;;;;23.32;35.35;98205.84;8361970;28;20207;-85
2021/08/17 11:00:59;;;;;;;7.20;5.23;;;;;;;24.26;34.12;98196.16;8367184;28;20396;-88
2021/08/17 11:05:02;;;;;;;6.77;5.47;;;;;;;23.16;35.61;98187.94;8365325;28;20216;-88
2021/08/17 11:09:06;;;;;;;10.83;6.50;;;;;;;22.43;36.89;98192.81;8364717;28;20227;-86
2021/08/17 11:13:11;;;;;;;8.53;5.87;;;;;;;22.98;35.80;98206.28;8364909;28;20194;-85
2021/08/17 11:17:15;;;;;;;10.77;5.90;;;;;;;23.00;35.75;98206.97;8366268;28;20194;-86
2021/08/17 11:21:32;;;;;;;8.60;5.73;;;;;;;22.85;35.67;98205.75;8364937;28;20206;-86
2021/08/17 11:25:35;;;;;;;9.00;5.63;;;;;;;22.54;36.79;98207.66;8364949;28;20195;-84
2021/08/17 11:29:43;;;;;;;8.80;5.90;;;;;;;22.54;37.04;98205.88;8359317;28;20220;-85
2021/08/17 11:33:46;;;;;;;10.27;6.20;;;;;;;22.11;37.82;98207.03;8358595;28;20192;-83
2021/08/17 11:37:50;;;;;;;8.70;6.53;;;;;;;22.53;37.88;98203.38;8362074;28;20231;-82
2021/08/17 11:41:53;;;;;;;13.67;6.80;;;;;;;22.95;37.55;98193.34;8376105;28;20203;-83
2021/08/17 11:45:58;;;;;;;10.40;7.50;;;;;;;23.18;34.93;98191.25;8381176;28;20210;-83
2021/08/17 11:50:03;;;;;;;8.67;6.53;;;;;;;24.27;35.67;98193.31;8368127;28;20231;-84
2021/08/17 11:54:05;;;;;;;8.97;6.60;;;;;;;23.58;36.17;98197.28;8376883;28;20202;-84
2021/08/17 11:58:09;;;;;;;11.07;6.97;;;;;;;22.23;36.95;98205.94;8393332;28;20213;-85
2021/08/17 12:02:20;;;;;;;9.83;6.90;;;;;;;21.89;37.68;98210.69;8388793;28;20398;-84
2021/08/17 12:06:23;;;;;;;11.43;7.13;;;;;;;22.05;38.71;98211.03;8387238;28;20527;-85
2021/08/17 12:10:28;;;;;;;14.50;7.43;;;;;;;21.94;39.18;98216.41;8375422;28;20216;-84
2021/08/17 12:14:31;;;;;;;9.27;6.63;;;;;;;22.21;39.42;98204.41;8369885;28;20382;-83
2021/08/17 12:18:35;;;;;;;11.67;7.10;;;;;;;22.15;39.38;98199.69;8367893;28;20202;-84
2021/08/17 12:22:39;;;;;;;10.00;7.50;;;;;;;22.13;39.26;98196.34;8369847;28;20192;-84
2021/08/17 12:26:54;;;;;;;12.73;7.20;;;;;;;21.97;38.81;98196.84;8368838;28;20196;-84
2021/08/17 12:31:16;;;;;;;11.40;7.63;;;;;;;22.01;39.80;98204.38;8368964;28;20227;-85
2021/08/17 12:35:25;;;;;;;10.37;7.37;;;;;;;21.90;39.08;98193.91;8368882;28;20204;-85
2021/08/17 12:39:30;;;;;;;10.53;7.50;;;;;;;22.01;39.14;98199.09;8384107;28;20242;-84
2021/08/17 12:43:40;;;;;;;12.27;7.87;;;;;;;21.59;40.33;98206.28;8377588;28;20211;-85
2021/08/17 12:47:58;;;;;;;11.20;7.60;;;;;;;21.73;40.14;98219.09;8369205;28;20196;-86
2021/08/17 12:52:26;;;;;;;12.73;8.33;;;;;;;21.57;40.70;98200.31;8363126;28;20207;-84
2021/08/17 12:56:29;;;;;;;10.87;7.77;;;;;;;21.73;39.89;98190.13;8385768;28;20199;-84
2021/08/17 13:00:34;;;;;;;11.37;7.80;;;;;;;21.99;39.76;98190.47;8386089;28;20225;-85
2021/08/17 13:04:37;;;;;;;11.90;8.10;;;;;;;21.76;40.11;98186.38;8366872;28;20219;-88
2021/08/17 13:08:41;;;;;;;12.67;7.90;;;;;;;22.04;39.71;98175.06;8352541;28;20234;-87
2021/08/17 13:12:44;;;;;;;10.27;7.50;;;;;;;22.61;38.51;98177.94;8352066;28;20211;-85
2021/08/17 13:16:47;;;;;;;10.77;7.93;;;;;;;22.56;39.03;98169.63;8351976;28;20518;-88
2021/08/17 13:20:49;;;;;;;21.97;8.10;;;;;;;22.71;39.46;98163.91;8351972;28;20208;-87
2021/08/17 13:24:54;;;;;;;19.33;7.90;;;;;;;22.48;39.24;98164.19;8357709;28;20203;-87
2021/08/17 13:28:57;;;;;;;13.07;7.93;;;;;;;22.78;39.33;98173.78;8352191;28;20231;-88
2021/08/17 13:32:59;;;;;;;19.10;7.90;;;;;;;22.84;39.46;98162.66;8351823;28;20207;-87
2021/08/17 13:37:03;;;;;;;15.27;7.43;;;;;;;22.91;39.57;98155.00;8351165;28;20207;-88
2021/08/17 13:41:07;;;;;;;12.03;7.97;;;;;;;22.54;38.34;98162.81;8351839;28;20213;-88
2021/08/17 13:45:11;;;;;;;12.40;7.93;;;;;;;22.31;39.19;98168.34;8351360;28;20204;-88
2021/08/17 13:49:14;;;;;;;11.40;7.50;;;;;;;22.18;39.42;98176.50;8351318;28;20238;-89
2021/08/17 13:53:17;;;;;;;9.43;7.60;;;;;;;22.32;39.10;98154.19;8364571;28;20211;-90
2021/08/17 13:57:21;;;;;;;10.70;6.80;;;;;;;22.10;39.56;98175.50;8384240;28;20499;-90
2021/08/17 14:01:24;;;;;;;8.43;7.07;;;;;;;22.02;40.13;98157.72;8383877;28;20207;-88
2021/08/17 14:05:27;;;;;;;10.70;7.57;;;;;;;21.76;40.21;98167.91;8383853;28;20247;-88
2021/08/17 14:09:30;;;;;;;8.67;7.13;;;;;;;21.57;40.06;98160.78;8383191;28;20238;-89
2021/08/17 14:13:34;;;;;;;10.67;7.27;;;;;;;21.47;39.99;98153.66;8383256;28;20200;-88
2021/08/17 14:17:37;;;;;;;15.07;7.73;;;;;;;21.42;40.56;98157.66;8383448;28;20203;-88
2021/08/17 14:21:40;;;;;;;24.63;8.03;;;;;;;21.61;40.91;98155.13;8380449;28;20387;-88
2021/08/17 14:25:43;;;;;;;12.47;7.57;;;;;;;21.77;40.77;98162.53;8383280;28;20210;-88
2021/08/17 14:29:47;;;;;;;10.47;7.43;;;;;;;22.04;39.67;98151.34;8383115;28;20231;-89
2021/08/17 14:33:50;;;;;;;9.70;7.60;;;;;;;22.09;40.29;98150.13;8383064;28;20200;-83
2021/08/17 14:37:53;;;;;;;13.83;7.50;;;;;;;22.11;40.16;98153.47;8382831;28;20243;-90
2021/08/17 14:41:56;;;;;;;11.53;7.73;;;;;;;22.30;39.38;98157.97;8383042;28;20205;-86
2021/08/17 14:46:00;;;;;;;11.57;8.10;;;;;;;22.19;38.83;98149.16;8365293;28;20214;-88
2021/08/17 14:50:03;;;;;;;17.40;7.87;;;;;;;22.22;40.93;98148.06;8351302;28;20228;-88
2021/08/17 14:54:06;;;;;;;12.93;7.27;;;;;;;21.99;40.58;98153.56;8369706;28;20213;-83
2021/08/17 14:58:09;;;;;;;14.67;11.23;;;;;;;21.98;41.20;98153.69;8382641;28;20209;-84
2021/08/17 15:02:13;;;;;;;21.00;9.30;;;;;;;22.05;41.10;98153.03;8382583;28;20207;-83
2021/08/17 15:06:16;;;;;;;15.77;8.57;;;;;;;21.73;40.87;98158.50;8382324;28;20226;-83
2021/08/17 15:10:20;;;;;;;13.90;8.63;;;;;;;21.95;41.68;98152.19;8382814;28;20238;-82
2021/08/17 15:14:22;;;;;;;20.73;10.80;;;;;;;21.73;41.32;98152.41;8382313;28;20208;-82
2021/08/17 15:18:26;;;;;;;19.17;10.20;;;;;;;21.90;40.52;98138.56;8382260;28;20202;-84
2021/08/17 15:22:29;;;;;;;17.67;12.70;;;;;;;22.04;40.71;98124.97;8384533;28;20210;-85
2021/08/17 15:26:32;;;;;;;16.00;9.27;;;;;;;21.91;40.31;98116.47;8388487;28;20200;-83
2021/08/17 15:30:35;;;;;;;11.20;8.37;;;;;;;21.72;39.90;98122.53;8388330;28;20223;-85
2021/08/17 15:34:39;;;;;;;24.77;9.23;;;;;;;21.79;40.97;98122.84;8388106;28;20211;-84
2021/08/17 15:38:42;;;;;;;20.87;10.13;;;;;;;21.76;41.48;98110.78;8385998;28;20238;-85
2021/08/17 15:42:46;;;;;;;12.43;9.40;;;;;;;21.90;40.39;98108.72;8388410;28;20379;-84
2021/08/17 15:46:49;;;;;;;27.80;9.27;;;;;;;21.70;40.69;98110.47;8387812;28;20203;-85
2021/08/17 15:50:53;;;;;;;18.67;8.53;;;;;;;21.60;40.89;98110.47;8387828;28;20226;-85
2021/08/17 15:54:56;;;;;;;10.23;7.60;;;;;;;21.75;40.39;98117.00;8390278;28;20199;-85
2021/08/17 15:58:59;;;;;;;11.30;7.40;;;;;;;21.47;39.86;98118.59;8387894;28;20549;-85
2021/08/17 16:03:01;;;;;;;11.33;7.40;;;;;;;21.34;40.47;98124.03;8387418;28;20203;-84
2021/08/17 16:07:06;;;;;;;8.60;6.83;;;;;;;21.55;41.06;98129.31;8387114;28;20549;-84
2021/08/17 16:11:09;;;;;;;11.90;7.00;;;;;;;21.50;41.08;98128.03;8387490;28;20238;-84
2021/08/17 16:15:13;;;;;;;9.20;7.17;;;;;;;21.42;40.34;98133.94;8387264;28;20203;-85
2021/08/17 16:19:16;;;;;;;12.50;7.30;;;;;;;21.19;40.90;98135.91;8386906;28;20211;-85
2021/08/17 16:23:20;;;;;;;10.20;7.43;;;;;;;21.39;41.21;98124.50;8386998;28;20206;-84
2021/08/17 16:27:23;;;;;;;12.70;7.93;;;;;;;21.27;40.66;98128.19;8386618;28;20199;-85
2021/08/17 16:31:26;;;;;;;8.80;7.33;;;;;;;21.34;40.83;98121.41;8386671;28;20225;-84
2021/08/17 16:35:28;;;;;;;10.47;7.73;;;;;;;21.16;41.04;98113.31;8385322;28;20201;-85
2021/08/17 16:39:33;;;;;;;13.17;7.67;;;;;;;20.84;41.27;98119.50;8386098;28;20236;-84
2021/08/17 16:43:36;;;;;;;10.13;7.30;;;;;;;21.12;41.68;98111.91;8386121;28;20199;-85
2021/08/17 16:47:39;;;;;;;12.23;6.93;;;;;;;21.18;41.78;98108.72;8386116;28;20208;-86
2021/08/17 16:51:42;;;;;;;9.13;7.10;;;;;;;21.03;42.32;98091.63;8385910;28;20230;-83
2021/08/17 16:55:46;;;;;;;10.37;7.60;;;;;;;20.96;42.01;98083.44;8352894;28;20377;-82
2021/08/17 16:59:49;;;;;;;12.13;7.37;;;;;;;20.98;42.01;98065.69;8352240;28;20204;-84
2021/08/17 17:03:51;;;;;;;10.50;6.83;;;;;;;20.85;42.09;98051.91;8352335;28;20239;-83
2021/08/17 17:07:54;;;;;;;11.77;7.60;;;;;;;20.85;42.40;98080.88;8352305;28;20311;-83
2021/08/17 17:11:59;;;;;;;8.47;6.97;;;;;;;20.84;42.63;98093.16;8351823;28;20236;-84
2021/08/17 17:16:02;;;;;;;9.47;7.20;;;;;;;20.78;42.95;98096.31;8351804;28;20200;-85
2021/08/17 17:20:06;;;;;;;12.20;7.67;;;;;;;20.68;42.91;98084.91;8351773;28;20205;-83
2021/08/17 17:24:13;;;;;;;9.87;6.97;;;;;;;20.65;43.68;98082.53;8351676;28;20204;-84
2021/08/17 17:28:17;;;;;;;9.90;7.03;;;;;;;20.69;44.09;98078.69;8355091;28;20211;-83
2021/08/17 17:32:20;;;;;;;10.77;7.20;;;;;;;20.66;44.02;98086.84;8352843;28;20241;-84
2021/08/17 17:36:23;;;;;;;10.40;6.87;;;;;;;20.59;44.14;98089.09;8376851;28;20219;-84
2021/08/17 17:40:26;;;;;;;9.50;7.67;;;;;;;20.56;44.61;98089.38;8383525;28;20254;-83
2021/08/17 17:44:32;;;;;;;10.17;7.23;;;;;;;20.54;44.63;98082.56;8383815;28;20483;-83
2021/08/17 17:48:37;;;;;;;27.30;11.53;;;;;;;20.44;44.55;98087.75;8384006;28;20385;-83
2021/08/17 17:52:39;;;;;;;28.37;10.93;;;;;;;20.43;44.84;98075.59;8383568;28;20531;-84
2021/08/17 17:56:42;;;;;;;9.73;7.17;;;;;;;20.33;44.72;98043.94;8383767;28;20223;-90
2021/08/17 18:00:46;;;;;;;14.00;8.17;;;;;;;20.43;44.07;98039.59;8383689;28;20200;-86
2021/08/17 18:04:50;;;;;;;11.27;7.70;;;;;;;20.46;44.67;98067.41;8383405;28;20221;-85
2021/08/17 18:08:53;;;;;;;26.93;11.00;;;;;;;20.51;44.94;98070.50;8383708;28;20195;-85
2021/08/17 18:12:55;;;;;;;15.03;8.83;;;;;;;20.47;45.25;98064.66;8383714;28;20223;-85
2021/08/17 18:17:02;;;;;;;16.90;8.80;;;;;;;20.12;43.60;98067.56;8383537;28;20210;-84
2021/08/17 18:21:05;;;;;;;19.03;8.53;;;;;;;20.35;44.40;98055.16;8383344;28;20531;-84
2021/08/17 18:25:14;;;;;;;13.47;8.47;;;;;;;20.40;44.47;98050.34;8383102;28;20463;-86
2021/08/17 18:29:17;;;;;;;11.07;7.03;;;;;;;20.30;43.96;98060.81;8383152;28;20204;-85
2021/08/17 18:33:21;;;;;;;9.73;7.50;;;;;;;20.35;43.11;98063.03;8382536;28;20617;-82
2021/08/17 18:37:29;;;;;;;10.90;7.20;;;;;;;20.34;43.41;98076.34;8381852;28;20231;-85
2021/08/17 18:41:32;;;;;;;9.53;7.00;;;;;;;20.19;43.46;98088.94;8382436;28;20203;-85
2021/08/17 18:45:35;;;;;;;8.20;7.00;;;;;;;20.16;43.43;98091.81;8382613;28;20391;-85
2021/08/17 18:50:00;;;;;;;9.17;7.10;;;;;;;20.09;43.47;98100.22;8382279;28;20201;-85
2021/08/17 18:54:03;;;;;;;8.77;7.03;;;;;;;20.03;44.93;98095.47;8381829;28;20197;-85
2021/08/17 18:58:06;;;;;;;13.37;7.70;;;;;;;19.99;45.54;98099.31;8385841;28;20217;-86
2021/08/17 19:02:09;;;;;;;8.10;6.90;;;;;;;19.87;46.79;98097.66;8388993;28;20213;-85